Frederikssund, Denmark
Current Conditions -  °F | °C
As of 7:20 AM on Friday 19 Dec 2014 (Local Time) from EKRK Reporting Station
Broken Clouds Broken Clouds  
Wind Chill: 43°   Ceiling: 8500
Heat Index: 48°   Visibility: 6mi
Dew Point: 45°   Wind: 12mph
Humidity: 87%   Direction: 240°WSW
Pressure: 29.44"   Gusts: NA
Location:  55.84°N, 12.07°E
Report Text: EKRK 190620Z AUTO 24010KT 9999NDV FEW014/// SCT020///BKN085/// BKN100/// 09/07 Q0997
Loading
Personal Weather Stations






























Interactive Weather Map New forecast layout! Learn more

10-Day Weather Forecast

Advertisements
Track Severe Weather on mobile